Bradenton Beach, FL

5:14 AM EST on December 25, 2014 (GMT -0500)
MacDill Air Force Base | Change Station
CLOSE
Current Station
Airport
Location: Tampa Macdill AFB,
Elevation: 13 ft
Nearby Weather Stations
Active Advisory: Coastal Hazard Statement

Elev 13 ft 27.85 °N, 82.52 °W | Updated 16 minutes ago

Partly Cloudy
Partly Cloudy
62 °F
Feels Like 62 °F
N
5
Wind Variable Wind from Variable

Today
High -- | Low -- °F
--% Chance of Precip.
Yesterday
High -- | Low -- °F
Precip. -- in
7:18 AM 5:43 PM
Waxing Crescent, 15% visible
Pressure 30.08 in
Visibility 10.0 miles
Clouds Overcast 7000 ft
Dew Point 59 °F
Humidity 90%
Rainfall 0.00 in
Snow Depth Not available.
UV 0 out of 12
Pollen .80 out of 12
Air Quality Not available.
Flu Activity Not available.
METAR KMCF 250958Z AUTO VRB04KT 10SM OVC070 16/15 A3007 RMK AO2 SLP186 T01640148

More Conditions Fewer Conditions

Pressure 30.08 in
Visibility 10.0 miles
Clouds Overcast 7000 ft
Dew Point 59 °F
Humidity 90%
Rainfall 0.00 in
Snow Depth Not available.
UV 0 out of 12
Pollen .80 out of 12
Air Quality Not available.
Flu Activity Not available.
METAR KMCF 250958Z AUTO VRB04KT 10SM OVC070 16/15 A3007 RMK AO2 SLP186 T01640148

More Conditions Fewer Conditions

10-Day Weather Forecast

Almanac

Astronomy

Dec. 25, 2014 Rise Set
Actual Time
Civil Twilight
Nautical Twilight
Astronomical Twilight
Moon
Length of Visible Light
Length of Day
Tomorrow will be .
, % of the Moon is Illuminated

Today's Extremes

State Highs State Lows

Community

WunderPhotos

Upload Photos

1,780,254 photos uploaded!

WunderBlogs® & News

Nearby

Air Quality

  Air Quality AQ Index Pollutant
Not available.

Snow Depth

Station Depth Elevation

Earthquake Activity

City Distance Mag. Time & Date
Minimum magnitude displayed is 2.5.

Coastal Water Temperatures

Place Temperature

Nearby Weather Stations